CheckWX is a tool to help pilots better visualize weather data.  It is not intended as a substitute for an official pre-flight weather briefing.

21:51:49 UTC

LCEN TAF
Ercan International Airport
Nicosia, Cyprus
TAF LCEN 072240Z 0800/0824 29012KT 9999 FEW025 PROB30 TEMPO 0812/0816 5000 SHRA BKN025 BKN080

Apr-8@
00:00 UTC

Apr-8 @ 00:00 UTC

Apr-9@
00:00 UTC

Apr-9 @ 00:00 UTC

TAF LCEN 072240Z 0800/0824 29012KT 9999 FEW025
Wind
  • 290° at 12 KTS
Cloud Levels
  • Few at 2,500' AGL

Apr-8@
12:00 UTC

Apr-8 @ 12:00 UTC

Apr-8@
16:00 UTC

Apr-8 @ 16:00 UTC

PROB30 TEMPO 0812/0816 5000 SHRA BKN025 BKN080

Expired

Conditions
Showers, Rain
Cloud Levels
  • Broken at 2,500' AGL
  • Broken at 8,000' AGL